Time;durP1;ratioP1;P1;durP2;ratioP2;P2;SDS_P1;SDS_P2;PMS_P1;PMS_P2;Temp;Humidity;BMP_temperature;BMP_pressure;BME280_temperature;BME280_humidity;BME280_pressure;Samples;Min_cycle;Max_cycle;Signal;HPM_P1;HPM_P2
2023/12/22 00:00:59;;;;;;;1.50;0.30;;;;;;;3.78;100.00;93628.25;108131;1281;22672;-82
2023/12/22 00:03:41;;;;;;;2.70;0.80;;;;;;;3.77;100.00;93679.08;108125;1281;25502;-82
2023/12/22 00:06:11;;;;;;;2.50;0.90;;;;;;;3.74;100.00;93688.73;108162;1275;23327;-81
2023/12/22 00:08:39;;;;;;;0.40;0.30;;;;;;;3.67;100.00;93688.20;108203;1274;22523;-81
2023/12/22 00:11:08;;;;;;;1.90;0.60;;;;;;;3.61;100.00;93684.33;108206;1281;22553;-81
2023/12/22 00:13:36;;;;;;;3.00;0.90;;;;;;;3.53;100.00;93678.46;108181;1274;22530;-82
2023/12/22 00:16:05;;;;;;;1.50;0.80;;;;;;;3.49;100.00;93670.52;108139;1281;22533;-81
2023/12/22 00:18:33;;;;;;;;;;;;;;;3.50;100.00;93671.02;108232;1275;23995;-82
2023/12/22 00:21:01;;;;;;;0.80;0.50;;;;;;;3.50;100.00;93668.96;108221;1274;23917;-81
2023/12/22 00:23:29;;;;;;;2.90;0.70;;;;;;;3.51;100.00;93681.13;108225;1274;22583;-82
2023/12/22 00:25:58;;;;;;;1.70;0.60;;;;;;;3.54;100.00;93698.04;108106;1275;22537;-81
2023/12/22 00:28:27;;;;;;;2.40;0.80;;;;;;;3.52;100.00;93712.75;108116;1281;23460;-80
2023/12/22 00:30:55;;;;;;;3.20;1.30;;;;;;;3.19;99.77;93727.64;108155;1280;26506;-80
2023/12/22 00:33:25;;;;;;;1.50;0.80;;;;;;;2.76;97.93;93726.26;108171;1280;22531;-79
2023/12/22 00:35:56;;;;;;;2.80;1.10;;;;;;;2.47;97.68;93753.42;108097;1281;25434;-79
2023/12/22 00:38:24;;;;;;;1.30;0.80;;;;;;;2.22;97.83;93756.45;108112;1281;22548;-80
2023/12/22 00:40:52;;;;;;;2.90;0.80;;;;;;;2.05;98.18;93747.63;108115;1281;24069;-80
2023/12/22 00:43:23;;;;;;;1.70;0.60;;;;;;;1.99;98.71;93745.86;108082;1281;22526;-80
2023/12/22 00:45:52;;;;;;;5.80;1.70;;;;;;;2.04;98.75;93745.55;108094;1279;24347;-80
2023/12/22 00:48:20;;;;;;;4.50;1.00;;;;;;;2.04;98.55;93750.14;108118;1259;27207;-81
2023/12/22 00:50:49;;;;;;;6.20;1.60;;;;;;;2.03;98.77;93729.68;108102;1274;22537;-80
2023/12/22 00:53:17;;;;;;;4.80;1.20;;;;;;;2.02;98.65;93760.08;108128;1264;23396;-81
2023/12/22 00:55:46;;;;;;;3.50;1.00;;;;;;;1.97;98.39;93763.94;108097;1281;24911;-81
2023/12/22 00:58:14;;;;;;;2.70;1.00;;;;;;;1.91;98.28;93765.78;108092;1280;22598;-81
2023/12/22 01:00:42;;;;;;;2.80;0.70;;;;;;;1.87;98.41;93769.84;108129;1279;23934;-82
2023/12/22 01:03:11;;;;;;;1.10;0.40;;;;;;;1.87;98.52;93746.17;108106;1281;25353;-82
2023/12/22 01:05:40;;;;;;;2.20;0.60;;;;;;;1.85;98.57;93736.36;108119;1275;22579;-81
2023/12/22 01:08:08;;;;;;;3.80;0.80;;;;;;;1.84;98.74;93731.25;108116;1281;22534;-81
2023/12/22 01:10:37;;;;;;;1.80;0.10;;;;;;;1.89;99.14;93725.33;108074;1281;22534;-81
2023/12/22 01:13:05;;;;;;;2.20;0.40;;;;;;;1.97;99.53;93713.50;108115;1281;22545;-82
2023/12/22 01:15:33;;;;;;;1.40;0.70;;;;;;;2.09;99.70;93712.23;108123;1275;22523;-80
2023/12/22 01:18:02;;;;;;;0.30;0.30;;;;;;;2.17;99.75;93711.14;108121;1281;22533;-81
2023/12/22 01:20:30;;;;;;;1.60;0.30;;;;;;;2.21;99.97;93712.66;108129;1281;22496;-82
2023/12/22 01:22:58;;;;;;;1.40;0.50;;;;;;;2.26;100.00;93724.31;108132;1281;22540;-81
2023/12/22 01:25:27;;;;;;;2.40;0.40;;;;;;;2.29;100.00;93732.92;108082;1281;22559;-81
2023/12/22 01:27:55;;;;;;;2.80;0.60;;;;;;;2.32;100.00;93748.95;108101;1274;24971;-81
2023/12/22 01:30:24;;;;;;;0.80;0.30;;;;;;;2.29;100.00;93741.33;108136;1264;25890;-82
2023/12/22 01:32:53;;;;;;;3.00;0.50;;;;;;;2.22;100.00;93733.13;108136;1281;22527;-81
2023/12/22 01:35:21;;;;;;;1.70;0.40;;;;;;;2.16;99.97;93725.95;108143;1281;23073;-82
2023/12/22 01:37:51;;;;;;;1.40;0.20;;;;;;;2.11;99.85;93730.08;108074;1279;32542;-82
2023/12/22 01:40:18;;;;;;;;;;;;;;;2.09;99.75;93762.67;108139;1282;22565;-81
2023/12/22 01:42:47;;;;;;;2.90;1.20;;;;;;;2.15;99.99;93781.90;108160;1281;24241;-81
2023/12/22 01:45:15;;;;;;;3.70;0.70;;;;;;;2.18;100.00;93780.54;108092;1281;22551;-80
2023/12/22 01:47:45;;;;;;;1.90;0.80;;;;;;;2.04;99.86;93792.67;108071;1274;25197;-79
2023/12/22 01:50:14;;;;;;;;;;;;;;;1.82;99.63;93789.36;108134;1282;22507;-80
2023/12/22 01:52:43;;;;;;;3.40;0.60;;;;;;;1.67;99.87;93781.25;108079;1274;22529;-81
2023/12/22 01:55:12;;;;;;;;;;;;;;;1.60;99.93;93778.95;108101;1281;22546;-81
2023/12/22 01:57:44;;;;;;;2.10;0.60;;;;;;;1.61;100.00;93780.75;108105;1281;22562;-81
2023/12/22 02:00:17;;;;;;;1.80;0.60;;;;;;;1.69;100.00;93765.14;108114;1282;22533;-81
2023/12/22 02:02:45;;;;;;;1.90;1.00;;;;;;;1.86;100.00;93772.69;108261;1281;22657;-81
2023/12/22 02:05:14;;;;;;;4.20;1.00;;;;;;;1.96;100.00;93766.84;108111;1281;22601;-81
2023/12/22 02:07:43;;;;;;;7.20;1.10;;;;;;;2.04;100.00;93766.39;108075;1281;22544;-81
2023/12/22 02:10:11;;;;;;;5.20;0.80;;;;;;;2.09;99.97;93777.92;108139;1281;24039;-81
2023/12/22 02:12:39;;;;;;;5.00;0.90;;;;;;;2.12;99.87;93773.30;108093;1274;23837;-81
2023/12/22 02:15:10;;;;;;;3.00;0.60;;;;;;;2.13;99.69;93769.15;108147;1274;22668;-81
2023/12/22 02:17:48;;;;;;;3.00;0.80;;;;;;;2.15;99.63;93771.54;108147;1281;24250;-82
2023/12/22 02:20:18;;;;;;;2.60;1.20;;;;;;;2.15;99.41;93781.84;108137;1274;22536;-81
2023/12/22 02:22:51;;;;;;;3.80;1.10;;;;;;;2.21;99.42;93784.84;108139;1274;22669;-81
2023/12/22 02:25:19;;;;;;;5.10;1.10;;;;;;;2.27;99.12;93783.52;108126;1281;25499;-81
2023/12/22 02:27:50;;;;;;;6.20;0.80;;;;;;;2.31;98.48;93782.59;108106;1281;21777;-81
2023/12/22 02:30:25;;;;;;;1.50;0.60;;;;;;;2.34;98.08;93783.80;108109;1279;22527;-81
2023/12/22 02:32:58;;;;;;;3.70;1.20;;;;;;;2.35;97.67;93781.39;108138;1281;23895;-82
2023/12/22 02:35:29;;;;;;;3.60;0.90;;;;;;;2.26;97.29;93770.42;108126;1275;22535;-81
2023/12/22 02:38:00;;;;;;;4.50;1.40;;;;;;;2.16;97.17;93763.80;108118;1281;22567;-82
2023/12/22 02:40:31;;;;;;;2.40;0.90;;;;;;;2.09;97.13;93767.27;108113;1274;22546;-82
2023/12/22 02:43:00;;;;;;;4.30;1.50;;;;;;;2.06;97.17;93758.05;108088;1281;22526;-81
2023/12/22 02:45:30;;;;;;;7.00;1.90;;;;;;;2.08;97.04;93756.44;108102;1281;23261;-81
2023/12/22 02:47:59;;;;;;;5.80;1.20;;;;;;;2.07;96.99;93757.59;108107;1281;22533;-81
2023/12/22 02:50:28;;;;;;;5.20;1.20;;;;;;;2.10;96.77;93762.55;108112;1277;22532;-82
2023/12/22 02:52:57;;;;;;;3.60;0.80;;;;;;;2.13;96.59;93752.73;108097;1282;22562;-80
2023/12/22 02:55:28;;;;;;;4.30;0.90;;;;;;;2.13;96.56;93751.05;108133;1281;22531;-81
2023/12/22 02:57:57;;;;;;;4.60;1.10;;;;;;;2.12;96.45;93769.69;108093;1277;22547;-81
2023/12/22 03:00:25;;;;;;;6.30;0.90;;;;;;;2.11;96.40;93765.71;108111;1275;23452;-81
2023/12/22 03:02:54;;;;;;;1.30;0.80;;;;;;;2.16;96.43;93761.03;108130;1281;22540;-81
2023/12/22 03:05:22;;;;;;;6.10;1.30;;;;;;;2.23;96.29;93762.80;108108;1281;23913;-81
2023/12/22 03:07:50;;;;;;;6.10;1.70;;;;;;;2.25;96.02;93766.67;108081;1282;25278;-81
2023/12/22 03:10:19;;;;;;;3.80;1.10;;;;;;;2.22;95.68;93756.12;107993;1274;139699;-81
2023/12/22 03:12:48;;;;;;;1.80;0.60;;;;;;;2.24;95.35;93754.56;108149;1279;22571;-81
2023/12/22 03:15:16;;;;;;;4.20;0.70;;;;;;;2.25;94.53;93760.50;108120;1281;25946;-81
2023/12/22 03:17:45;;;;;;;3.30;0.90;;;;;;;2.25;94.08;93767.25;108082;1281;22783;-81
2023/12/22 03:20:14;;;;;;;2.00;0.90;;;;;;;2.20;93.77;93769.08;108086;1281;24134;-81
2023/12/22 03:22:42;;;;;;;5.30;1.20;;;;;;;2.16;93.73;93773.91;108104;1274;22609;-81
2023/12/22 03:25:11;;;;;;;4.50;1.20;;;;;;;2.11;93.42;93779.62;108089;1281;22478;-81
2023/12/22 03:27:42;;;;;;;;;;;;;;;2.08;93.24;93781.61;108102;1282;22556;-81
2023/12/22 03:30:12;;;;;;;3.20;0.70;;;;;;;2.06;93.39;93776.95;108099;1281;22527;-81
2023/12/22 03:32:40;;;;;;;4.10;0.70;;;;;;;2.07;93.23;93766.33;108128;1282;22538;-81
2023/12/22 03:35:09;;;;;;;4.90;0.80;;;;;;;2.10;93.01;93761.82;108084;1281;23832;-81
2023/12/22 03:37:37;;;;;;;3.70;1.20;;;;;;;2.10;92.44;93748.13;108059;1275;23162;-80
2023/12/22 03:40:09;;;;;;;4.00;1.20;;;;;;;2.21;91.04;93759.49;108098;1278;22541;-80
2023/12/22 03:42:38;;;;;;;4.20;1.30;;;;;;;2.28;89.75;93768.02;108136;1264;22559;-80
2023/12/22 03:45:08;;;;;;;2.70;1.10;;;;;;;2.30;89.53;93763.59;108109;1281;22555;-80
2023/12/22 03:47:37;;;;;;;4.40;0.50;;;;;;;2.28;88.97;93756.16;108153;1259;23892;-80
2023/12/22 03:50:08;;;;;;;3.80;0.90;;;;;;;2.28;87.98;93745.08;108120;1281;22809;-80
2023/12/22 03:52:36;;;;;;;2.00;0.80;;;;;;;2.31;86.62;93743.81;108142;1280;22551;-80
2023/12/22 03:55:06;;;;;;;5.20;0.80;;;;;;;2.30;86.02;93736.98;108060;1282;24351;-81
2023/12/22 03:57:35;;;;;;;3.10;0.50;;;;;;;2.29;85.78;93741.13;108144;1274;22893;-80
2023/12/22 04:00:05;;;;;;;3.70;1.10;;;;;;;2.27;85.06;93739.35;108131;1279;23921;-80
2023/12/22 04:02:33;;;;;;;6.80;0.90;;;;;;;2.28;83.93;93732.36;108134;1281;23132;-81
2023/12/22 04:05:02;;;;;;;3.40;0.80;;;;;;;2.27;82.70;93726.54;108101;1279;25314;-80
2023/12/22 04:07:31;;;;;;;1.30;0.60;;;;;;;2.29;81.38;93745.52;108078;1281;26121;-81
2023/12/22 04:10:00;;;;;;;2.50;0.80;;;;;;;2.31;81.10;93735.33;108119;1281;25379;-81
2023/12/22 04:12:28;;;;;;;4.60;1.50;;;;;;;2.30;80.59;93753.50;108117;1281;24056;-81
2023/12/22 04:14:57;;;;;;;2.70;0.90;;;;;;;2.32;79.06;93764.63;108119;1270;22505;-81
2023/12/22 04:17:27;;;;;;;5.20;1.10;;;;;;;2.34;76.06;93767.20;108091;1282;22590;-81
2023/12/22 04:19:58;;;;;;;5.30;1.40;;;;;;;2.31;75.18;93768.94;108096;1281;24057;-81
2023/12/22 04:22:30;;;;;;;3.00;0.80;;;;;;;2.34;74.25;93772.89;108107;1282;24322;-81
2023/12/22 04:25:00;;;;;;;5.30;1.40;;;;;;;2.34;74.54;93779.80;108108;1264;22567;-81
2023/12/22 04:27:30;;;;;;;4.10;1.00;;;;;;;2.32;74.74;93786.68;108088;1281;22541;-82
2023/12/22 04:29:57;;;;;;;;;;;;;;;2.26;75.82;93773.20;108115;1281;25425;-82
2023/12/22 04:32:27;;;;;;;6.10;1.00;;;;;;;2.17;76.26;93785.67;108232;1281;23918;-82
2023/12/22 04:34:58;;;;;;;2.80;0.90;;;;;;;2.18;75.49;93772.27;108109;1281;25982;-82
2023/12/22 04:37:26;;;;;;;2.00;0.70;;;;;;;2.19;75.84;93781.53;108090;1274;26486;-82
2023/12/22 04:39:57;;;;;;;4.10;1.30;;;;;;;2.19;76.15;93786.14;108083;1281;23954;-82
2023/12/22 04:42:26;;;;;;;3.40;0.40;;;;;;;2.17;76.12;93780.65;108102;1264;22654;-82
2023/12/22 04:44:54;;;;;;;2.10;0.70;;;;;;;2.14;75.77;93779.23;108103;1281;24217;-82
2023/12/22 04:47:24;;;;;;;7.50;1.10;;;;;;;2.13;75.73;93772.44;108091;1281;22508;-82
2023/12/22 04:49:52;;;;;;;4.80;1.00;;;;;;;2.15;74.77;93766.59;108142;1279;22538;-82
2023/12/22 04:52:21;;;;;;;5.50;1.20;;;;;;;2.16;74.13;93757.99;108085;1275;27052;-82
2023/12/22 04:54:49;;;;;;;4.80;2.00;;;;;;;2.15;73.94;93747.13;108090;1281;25736;-82
2023/12/22 04:57:18;;;;;;;10.70;4.90;;;;;;;2.14;73.98;93752.44;108057;1281;26870;-82
2023/12/22 04:59:46;;;;;;;2.90;1.10;;;;;;;2.13;73.92;93753.78;108124;1282;25393;-82
2023/12/22 05:02:14;;;;;;;4.70;1.30;;;;;;;2.08;74.22;93755.38;108108;1281;22527;-82
2023/12/22 05:04:42;;;;;;;4.60;1.30;;;;;;;2.04;74.73;93762.59;108126;1281;25466;-82
2023/12/22 05:07:11;;;;;;;5.50;1.20;;;;;;;1.98;75.05;93762.88;108115;1281;25337;-82
2023/12/22 05:09:41;;;;;;;4.20;1.00;;;;;;;1.96;75.13;93757.93;108110;1274;24225;-82
2023/12/22 05:12:09;;;;;;;1.40;0.40;;;;;;;1.93;75.65;93766.27;108128;1281;22530;-82
2023/12/22 05:14:38;;;;;;;5.60;1.70;;;;;;;1.86;76.30;93771.64;108084;1281;25561;-82
2023/12/22 05:17:06;;;;;;;2.50;0.60;;;;;;;1.78;76.91;93765.25;108080;1281;25090;-82
2023/12/22 05:19:37;;;;;;;2.60;0.90;;;;;;;1.69;77.57;93758.55;108093;1281;25262;-82
2023/12/22 05:22:08;;;;;;;5.00;1.00;;;;;;;1.64;78.24;93761.45;108119;1281;24316;-82
2023/12/22 05:24:41;;;;;;;5.60;1.80;;;;;;;1.60;78.72;93758.01;108119;1275;25293;-82
2023/12/22 05:27:09;;;;;;;8.40;1.60;;;;;;;1.57;79.30;93755.41;108242;1281;29395;-82
2023/12/22 05:29:40;;;;;;;7.20;1.70;;;;;;;1.59;79.72;93751.55;108086;1281;23329;-82
2023/12/22 05:32:09;;;;;;;3.60;0.90;;;;;;;1.57;79.95;93741.73;108102;1281;22530;-82
2023/12/22 05:34:37;;;;;;;5.20;1.00;;;;;;;1.57;80.33;93743.86;108116;1282;22646;-82
2023/12/22 05:37:06;;;;;;;5.10;1.30;;;;;;;1.58;80.69;93744.58;108101;1281;22614;-82
2023/12/22 05:39:34;;;;;;;5.50;1.50;;;;;;;1.61;80.74;93745.98;108079;1281;22550;-82
2023/12/22 05:42:06;;;;;;;3.10;1.10;;;;;;;1.61;80.65;93745.64;108121;1281;26945;-82
2023/12/22 05:44:38;;;;;;;6.50;1.50;;;;;;;1.71;80.18;93741.91;108095;1280;25439;-82
2023/12/22 05:47:07;;;;;;;5.00;1.20;;;;;;;1.74;80.02;93760.48;108071;1274;22560;-82
2023/12/22 05:49:36;;;;;;;2.20;1.10;;;;;;;1.81;79.57;93768.92;108123;1281;24046;-82
2023/12/22 05:52:06;;;;;;;2.60;0.90;;;;;;;1.92;79.45;93767.60;108111;1281;22542;-82
2023/12/22 05:54:33;;;;;;;;;;;;;;;1.96;79.36;93768.42;108108;1282;24191;-83
2023/12/22 05:57:08;;;;;;;2.70;1.10;;;;;;;1.97;79.34;93760.06;108122;1281;22526;-82
2023/12/22 05:59:36;;;;;;;2.30;0.90;;;;;;;1.94;79.56;93769.00;108120;1274;22536;-82
2023/12/22 06:02:05;;;;;;;2.50;0.70;;;;;;;1.91;79.93;93759.23;108092;1275;22740;-82
2023/12/22 06:04:34;;;;;;;5.50;1.60;;;;;;;1.87;80.30;93780.59;108104;1274;24474;-82
2023/12/22 06:07:04;;;;;;;5.70;1.40;;;;;;;1.81;80.78;93788.55;108125;1281;22566;-82
2023/12/22 06:09:32;;;;;;;;;;;;;;;1.77;81.11;93797.05;108131;1282;23887;-82
2023/12/22 06:12:00;;;;;;;2.50;0.80;;;;;;;1.80;81.55;93806.11;108139;1281;22571;-82
2023/12/22 06:14:29;;;;;;;5.60;1.00;;;;;;;1.83;81.76;93825.39;108090;1282;22542;-82
2023/12/22 06:16:58;;;;;;;6.20;1.20;;;;;;;1.82;81.75;93827.97;108096;1281;22562;-82
2023/12/22 06:19:28;;;;;;;6.10;2.20;;;;;;;1.83;81.93;93837.04;108081;1281;22542;-82
2023/12/22 06:21:57;;;;;;;8.20;1.80;;;;;;;1.87;82.08;93850.77;108091;1281;22536;-82
2023/12/22 06:24:26;;;;;;;5.50;1.30;;;;;;;1.88;82.20;93878.27;108117;1282;22529;-82
2023/12/22 06:26:54;;;;;;;4.10;1.30;;;;;;;1.78;82.63;93945.84;108054;1282;24762;-82
2023/12/22 06:29:25;;;;;;;3.50;1.20;;;;;;;1.54;84.41;93990.66;108094;1282;22490;-81
2023/12/22 06:31:55;;;;;;;2.50;0.90;;;;;;;0.97;86.86;94007.36;108117;1275;22567;-81
2023/12/22 06:34:27;;;;;;;4.90;2.10;;;;;;;0.42;89.67;93971.63;108095;1282;22572;-81
2023/12/22 06:36:56;;;;;;;7.00;1.20;;;;;;;0.16;90.84;93951.18;108129;1274;22544;-81
2023/12/22 06:39:27;;;;;;;9.80;1.50;;;;;;;0.15;90.55;93945.30;108097;1281;22659;-81
2023/12/22 06:41:58;;;;;;;5.80;1.30;;;;;;;0.23;89.61;93957.97;108111;1282;23770;-81
2023/12/22 06:44:26;;;;;;;2.60;1.10;;;;;;;0.32;87.99;93950.84;108109;1278;25311;-80
2023/12/22 06:46:55;;;;;;;3.80;1.20;;;;;;;0.43;86.39;93960.98;108140;1282;25356;-80
2023/12/22 06:49:24;;;;;;;4.40;1.20;;;;;;;0.48;85.90;93962.59;108108;1281;23936;-81
2023/12/22 06:51:52;;;;;;;4.20;1.40;;;;;;;0.51;85.34;93963.69;108094;1279;25446;-81
2023/12/22 06:54:23;;;;;;;5.90;2.10;;;;;;;0.54;84.32;93964.16;108093;1278;22550;-81
2023/12/22 06:56:51;;;;;;;5.00;1.70;;;;;;;0.63;81.54;93957.48;108082;1281;22734;-80
2023/12/22 06:59:19;;;;;;;8.70;1.80;;;;;;;0.76;80.79;93962.23;108119;1275;24909;-81
2023/12/22 07:01:48;;;;;;;5.60;1.30;;;;;;;0.81;79.76;93964.60;108132;1282;23734;-81
2023/12/22 07:04:16;;;;;;;4.10;1.00;;;;;;;0.88;78.90;93970.83;108096;1281;25482;-81
2023/12/22 07:06:47;;;;;;;4.80;1.20;;;;;;;0.95;78.46;93973.27;108100;1281;25493;-81
2023/12/22 07:09:34;;;;;;;7.30;1.80;;;;;;;1.01;77.06;93963.61;108108;1281;23906;-81
2023/12/22 07:12:03;;;;;;;2.40;0.80;;;;;;;1.09;77.39;93969.23;108094;1274;22613;-80
2023/12/22 07:14:35;;;;;;;3.80;1.40;;;;;;;1.09;76.99;93963.06;108132;1282;24307;-80
2023/12/22 07:17:02;;;;;;;;;;;;;;;1.13;76.62;93975.70;108078;1281;27206;-81
2023/12/22 07:19:31;;;;;;;11.50;1.80;;;;;;;1.14;76.52;93973.96;108100;1275;22532;-81
2023/12/22 07:22:02;;;;;;;4.90;1.20;;;;;;;1.19;76.72;93968.97;108102;1266;22543;-81
2023/12/22 07:24:33;;;;;;;2.80;1.50;;;;;;;1.19;76.61;93966.78;108119;1281;25333;-81
2023/12/22 07:27:01;;;;;;;7.10;1.90;;;;;;;1.19;76.00;93969.92;108111;1281;26910;-81
2023/12/22 07:29:30;;;;;;;5.90;1.40;;;;;;;1.22;76.13;93971.17;108145;1281;23205;-81
2023/12/22 07:31:59;;;;;;;3.50;1.20;;;;;;;1.27;76.01;93975.73;108102;1279;25314;-81
2023/12/22 07:34:27;;;;;;;;;;;;;;;1.37;74.94;93978.68;108109;1281;22514;-80
2023/12/22 07:36:56;;;;;;;3.90;1.10;;;;;;;1.48;74.69;93984.34;108097;1282;23862;-81
2023/12/22 07:39:27;;;;;;;6.40;1.90;;;;;;;1.53;74.69;93977.16;108074;1275;22533;-81
2023/12/22 07:41:56;;;;;;;4.50;0.90;;;;;;;1.58;73.87;93972.46;108110;1282;24236;-81
2023/12/22 07:44:24;;;;;;;7.80;1.60;;;;;;;1.70;72.99;93965.92;108111;1282;24202;-81
2023/12/22 07:47:02;;;;;;;3.70;1.40;;;;;;;1.74;71.79;93962.52;108083;1275;22551;-81
2023/12/22 07:49:30;;;;;;;4.50;1.10;;;;;;;1.75;69.82;93963.80;108109;1282;23863;-81
2023/12/22 07:52:00;;;;;;;5.40;1.20;;;;;;;1.83;69.51;93965.81;108078;1280;23990;-81
2023/12/22 07:54:29;;;;;;;3.00;1.40;;;;;;;1.83;69.12;93969.38;108097;1274;25439;-81
2023/12/22 07:57:00;;;;;;;7.40;0.90;;;;;;;1.99;68.93;93975.91;108110;1282;26486;-81
2023/12/22 07:59:29;;;;;;;6.10;1.00;;;;;;;2.20;68.95;93970.05;108101;1275;22758;-81
2023/12/22 08:01:57;;;;;;;6.10;1.20;;;;;;;2.41;68.66;93974.98;108096;1281;22563;-81
2023/12/22 08:04:28;;;;;;;1.40;0.70;;;;;;;2.58;67.71;93974.51;108100;1282;22643;-81
2023/12/22 08:06:56;;;;;;;3.90;1.30;;;;;;;2.60;67.67;93979.91;108100;1276;22571;-81
2023/12/22 08:09:24;;;;;;;5.50;1.40;;;;;;;2.63;67.04;93978.91;108110;1281;22576;-81
2023/12/22 08:11:52;;;;;;;4.70;1.60;;;;;;;2.65;66.49;93983.46;108131;1282;22575;-81
2023/12/22 08:14:22;;;;;;;6.70;1.20;;;;;;;2.67;66.73;93986.61;108203;1281;22534;-81
2023/12/22 08:17:01;;;;;;;7.60;1.20;;;;;;;2.68;66.15;93991.62;108102;1281;22562;-81
2023/12/22 08:19:29;;;;;;;5.70;1.80;;;;;;;2.73;66.41;93999.91;108084;1275;22526;-81
2023/12/22 08:21:58;;;;;;;4.70;1.40;;;;;;;2.75;65.69;93997.23;108096;1282;22561;-81
2023/12/22 08:24:26;;;;;;;3.50;1.00;;;;;;;2.74;65.94;94011.38;108122;1281;25285;-81
2023/12/22 08:26:55;;;;;;;0.90;0.70;;;;;;;2.81;66.14;94018.10;108079;1282;22554;-81
2023/12/22 08:29:28;;;;;;;4.10;0.80;;;;;;;2.89;65.20;94015.31;108131;1281;22605;-81
2023/12/22 08:31:56;;;;;;;2.30;0.80;;;;;;;2.89;64.93;94009.35;108095;1276;27637;-82
2023/12/22 08:34:24;;;;;;;2.80;0.80;;;;;;;2.86;64.16;94004.09;108077;1276;22551;-81
2023/12/22 08:36:54;;;;;;;2.70;1.30;;;;;;;2.82;64.37;93988.51;108074;1282;22539;-81
2023/12/22 08:39:26;;;;;;;5.50;1.30;;;;;;;2.82;64.98;93983.66;108092;1282;22980;-81
2023/12/22 08:41:54;;;;;;;4.20;1.10;;;;;;;2.87;65.77;93996.31;108093;1281;24231;-81
2023/12/22 08:44:22;;;;;;;5.20;1.40;;;;;;;2.90;65.44;93986.88;108085;1282;24234;-81
2023/12/22 08:46:51;;;;;;;5.90;1.40;;;;;;;2.72;65.66;93997.20;108078;1282;22541;-82
2023/12/22 08:49:19;;;;;;;5.60;1.20;;;;;;;2.61;66.31;93992.88;108130;1279;22533;-81
2023/12/22 08:51:47;;;;;;;5.10;0.80;;;;;;;2.61;66.68;93999.30;108108;1281;22634;-81
2023/12/22 08:54:16;;;;;;;4.20;1.30;;;;;;;2.55;66.79;93988.48;108104;1271;22534;-81
2023/12/22 08:56:44;;;;;;;5.40;1.60;;;;;;;2.48;67.05;93984.95;108094;1282;22527;-81
2023/12/22 08:59:12;;;;;;;4.00;1.40;;;;;;;2.47;67.47;93984.88;108134;1279;25428;-82
2023/12/22 09:01:42;;;;;;;2.70;1.00;;;;;;;2.51;68.29;93985.61;108116;1281;22752;-82
2023/12/22 09:04:11;;;;;;;2.10;0.90;;;;;;;2.54;68.31;93978.63;108159;1276;22540;-82
2023/12/22 09:06:40;;;;;;;2.00;1.10;;;;;;;2.53;68.23;93976.07;108080;1281;26679;-82
2023/12/22 09:09:09;;;;;;;2.70;1.30;;;;;;;2.50;68.24;93963.52;108099;1281;22526;-82
2023/12/22 09:11:38;;;;;;;2.30;0.70;;;;;;;2.48;67.89;93967.13;108142;1281;22537;-82
2023/12/22 09:14:09;;;;;;;1.70;0.70;;;;;;;2.44;68.23;93974.38;108108;1279;24199;-82
2023/12/22 09:16:38;;;;;;;3.10;1.10;;;;;;;2.38;68.25;93982.84;108089;1281;22520;-82
2023/12/22 09:19:08;;;;;;;1.70;0.80;;;;;;;2.36;68.11;93973.92;108162;1282;22544;-82
2023/12/22 09:21:35;;;;;;;;;;;;;;;2.34;67.96;93979.77;108107;1277;22592;-82
2023/12/22 09:24:05;;;;;;;4.70;1.30;;;;;;;2.32;68.38;93970.04;108118;1282;24229;-82
2023/12/22 09:26:36;;;;;;;4.30;1.10;;;;;;;2.28;68.59;93964.43;108056;1281;23825;-82
2023/12/22 09:29:04;;;;;;;4.70;1.10;;;;;;;2.21;69.08;93972.55;108103;1281;26475;-82
2023/12/22 09:31:33;;;;;;;2.50;1.20;;;;;;;2.08;69.26;93965.52;108104;1281;22560;-82
2023/12/22 09:34:02;;;;;;;3.90;1.10;;;;;;;1.90;70.85;93973.49;108104;1279;22571;-82
2023/12/22 09:36:30;;;;;;;2.30;1.20;;;;;;;1.68;72.71;94000.43;108062;1275;22532;-82
2023/12/22 09:38:59;;;;;;;4.80;1.80;;;;;;;1.48;74.26;94002.83;108106;1281;22544;-82
2023/12/22 09:41:28;;;;;;;1.30;0.70;;;;;;;1.31;76.16;94020.42;108100;1281;22625;-82
2023/12/22 09:43:59;;;;;;;3.40;1.20;;;;;;;1.18;77.47;94015.42;108105;1281;22562;-82
2023/12/22 09:46:29;;;;;;;8.60;1.60;;;;;;;1.07;79.69;94013.15;108142;1281;22557;-81
2023/12/22 09:48:59;;;;;;;6.40;1.80;;;;;;;0.81;83.92;94034.13;108179;1281;22534;-82
2023/12/22 09:51:30;;;;;;;3.90;1.00;;;;;;;0.55;85.49;94033.55;108124;1275;23865;-82
2023/12/22 09:54:01;;;;;;;3.00;1.20;;;;;;;0.37;87.41;94027.28;108158;1281;22534;-83
2023/12/22 09:56:31;;;;;;;3.70;1.50;;;;;;;0.28;89.04;94008.15;108071;1281;22563;-83
2023/12/22 09:59:00;;;;;;;1.40;0.60;;;;;;;0.27;89.44;93999.34;108122;1276;24263;-83
2023/12/22 10:01:29;;;;;;;;;;;;;;;0.24;90.72;94004.80;108092;1282;22626;-83
2023/12/22 10:03:59;;;;;;;2.00;1.00;;;;;;;0.20;91.06;94008.30;108113;1281;25275;-83
2023/12/22 10:06:30;;;;;;;3.20;1.40;;;;;;;0.23;90.81;94001.85;108079;1281;23561;-83
2023/12/22 10:08:59;;;;;;;3.00;1.00;;;;;;;0.27;90.91;94001.48;108113;1265;22544;-83
2023/12/22 10:11:30;;;;;;;2.60;1.10;;;;;;;0.25;91.44;94004.68;108092;1279;22582;-83
2023/12/22 10:13:59;;;;;;;2.60;1.50;;;;;;;0.24;91.33;93996.52;108123;1282;22565;-83
2023/12/22 10:16:28;;;;;;;;;;;;;;;0.28;91.34;94001.23;108092;1275;22623;-83
2023/12/22 10:18:57;;;;;;;4.20;1.50;;;;;;;0.30;91.61;93995.27;108133;1281;22562;-83
2023/12/22 10:21:30;;;;;;;4.40;1.80;;;;;;;0.32;91.74;93997.86;108083;1275;22605;-83
2023/12/22 10:23:59;;;;;;;2.20;1.10;;;;;;;0.30;91.90;93997.83;108088;1281;24226;-83
2023/12/22 10:26:28;;;;;;;2.20;1.30;;;;;;;0.25;92.61;93988.17;108098;1281;23109;-83
2023/12/22 10:28:56;;;;;;;;;;;;;;;0.25;92.75;93986.13;108112;1281;25273;-83
2023/12/22 10:31:25;;;;;;;4.90;1.10;;;;;;;0.35;92.92;93984.00;108094;1281;23823;-83
2023/12/22 10:33:55;;;;;;;3.80;1.70;;;;;;;0.43;93.48;93992.88;108112;1282;22666;-83
2023/12/22 10:36:23;;;;;;;2.40;0.70;;;;;;;0.46;93.08;93992.74;108089;1282;22533;-83
2023/12/22 10:38:54;;;;;;;3.30;1.10;;;;;;;0.44;92.83;93995.27;108113;1275;22586;-83
2023/12/22 10:41:23;;;;;;;4.40;1.20;;;;;;;0.41;93.64;93997.16;108131;1281;26532;-83
2023/12/22 10:43:52;;;;;;;5.20;1.30;;;;;;;0.43;92.91;94004.19;108162;1281;22903;-83
2023/12/22 10:46:20;;;;;;;6.90;1.50;;;;;;;0.43;92.96;94001.64;108041;1276;22568;-83
2023/12/22 10:48:55;;;;;;;3.70;1.40;;;;;;;0.43;93.41;93996.95;108090;1279;23396;-83
2023/12/22 10:51:24;;;;;;;3.70;1.40;;;;;;;0.46;93.38;93998.63;108139;1280;22704;-83
2023/12/22 10:53:55;;;;;;;2.10;0.90;;;;;;;0.47;93.35;94004.40;108122;1274;23782;-83
2023/12/22 10:56:26;;;;;;;4.20;1.50;;;;;;;0.50;93.59;93997.06;108082;1282;23301;-83
2023/12/22 10:58:56;;;;;;;3.90;1.30;;;;;;;0.53;94.17;93987.91;108137;1275;22767;-83
2023/12/22 11:01:25;;;;;;;;;;;;;;;0.55;94.13;93985.95;108098;1281;26084;-83
2023/12/22 11:03:57;;;;;;;4.10;1.70;;;;;;;0.57;94.27;93983.48;108158;1281;22576;-83
2023/12/22 11:06:27;;;;;;;5.10;1.50;;;;;;;0.65;94.29;93975.36;108193;1274;54842;-83
2023/12/22 11:08:57;;;;;;;5.00;1.40;;;;;;;0.72;93.61;93968.61;108095;1271;22525;-84
2023/12/22 11:11:33;;;;;;;3.20;1.40;;;;;;;0.74;93.85;93961.73;108095;1279;22540;-84
2023/12/22 11:14:02;;;;;;;3.60;1.70;;;;;;;0.80;93.38;93958.15;108097;1273;22552;-84
2023/12/22 11:16:35;;;;;;;5.40;1.90;;;;;;;0.84;93.27;93957.06;108441;1281;22944;-84
2023/12/22 11:19:06;;;;;;;4.20;1.20;;;;;;;0.87;92.91;93952.23;108076;1282;25281;-84
2023/12/22 11:21:37;;;;;;;3.80;2.50;;;;;;;0.93;92.80;93935.65;108126;1280;22540;-84
2023/12/22 11:24:07;;;;;;;3.00;1.50;;;;;;;0.99;92.48;93920.75;108410;1282;22532;-84
2023/12/22 11:26:37;;;;;;;3.90;1.60;;;;;;;1.02;92.57;93917.73;108418;1279;25259;-84
2023/12/22 11:29:05;;;;;;;;;;;;;;;1.06;92.18;93929.92;108431;1274;22950;-83
2023/12/22 11:31:34;;;;;;;4.50;1.40;;;;;;;1.11;92.25;93920.41;108101;1282;22536;-84
2023/12/22 11:34:05;;;;;;;7.80;1.90;;;;;;;1.24;92.04;93918.18;108119;1282;25437;-84
2023/12/22 11:36:34;;;;;;;5.00;1.90;;;;;;;1.38;91.78;93917.38;108078;1275;25326;-83
2023/12/22 11:39:04;;;;;;;6.30;1.50;;;;;;;1.47;91.28;93915.05;108450;1275;24215;-83
2023/12/22 11:41:37;;;;;;;2.20;1.00;;;;;;;1.47;90.51;93908.36;108425;1281;23015;-82
2023/12/22 11:44:06;;;;;;;5.10;1.70;;;;;;;1.39;89.84;93899.87;108126;1279;22570;-83
2023/12/22 11:46:35;;;;;;;5.10;2.10;;;;;;;1.37;89.95;93888.67;108111;1281;22546;-83